Time;durP1;ratioP1;P1;durP2;ratioP2;P2;SDS_P1;SDS_P2;PMS_P1;PMS_P2;Temp;Humidity;BMP_temperature;BMP_pressure;BME280_temperature;BME280_humidity;BME280_pressure;Samples;Min_cycle;Max_cycle;Signal;HPM_P1;HPM_P2
2023/12/25 00:01:47;;;;;;;6.65;5.55;;;;;;;10.95;100.00;100290.97;6306725;22;20003;-82
2023/12/25 00:04:13;;;;;;;5.78;5.20;;;;;;;10.99;100.00;100294.03;6305062;22;20098;-81
2023/12/25 00:06:38;;;;;;;7.95;6.53;;;;;;;10.93;100.00;100286.91;6306680;22;20035;-83
2023/12/25 00:09:03;;;;;;;6.38;5.70;;;;;;;10.88;100.00;100286.78;6304957;22;20098;-82
2023/12/25 00:11:29;;;;;;;7.57;6.38;;;;;;;10.80;100.00;100285.25;6304843;22;20090;-83
2023/12/25 00:13:55;;;;;;;8.55;6.60;;;;;;;10.82;100.00;100286.66;6305142;22;20430;-84
2023/12/25 00:16:21;;;;;;;6.07;5.47;;;;;;;10.81;100.00;100285.03;6305087;22;20007;-83
2023/12/25 00:18:46;;;;;;;7.97;7.10;;;;;;;10.70;100.00;100280.47;6306333;22;20008;-82
2023/12/25 00:21:12;;;;;;;6.53;5.93;;;;;;;10.75;100.00;100280.59;6306523;22;20478;-83
2023/12/25 00:23:37;;;;;;;7.07;6.15;;;;;;;10.73;100.00;100253.28;6304754;22;20003;-82
2023/12/25 00:26:02;;;;;;;8.52;6.75;;;;;;;10.67;100.00;100264.88;6306450;22;20452;-82
2023/12/25 00:28:28;;;;;;;7.70;6.90;;;;;;;10.64;100.00;100256.50;6304870;22;20061;-82
2023/12/25 00:30:53;;;;;;;8.43;6.93;;;;;;;10.60;100.00;100264.16;6306274;22;20376;-83
2023/12/25 00:33:18;;;;;;;7.55;6.03;;;;;;;10.61;100.00;100260.44;6306461;22;20003;-84
2023/12/25 00:35:44;;;;;;;5.82;4.70;;;;;;;10.64;100.00;100265.31;6304789;22;20007;-83
2023/12/25 00:38:09;;;;;;;6.63;5.22;;;;;;;10.63;100.00;100263.69;6304811;22;20007;-83
2023/12/25 00:40:35;;;;;;;6.15;5.55;;;;;;;10.59;100.00;100259.84;6304653;22;20007;-84
2023/12/25 00:43:00;;;;;;;6.90;4.85;;;;;;;10.55;100.00;100262.16;6306483;22;20011;-82
2023/12/25 00:45:25;;;;;;;5.53;4.97;;;;;;;10.50;100.00;100248.69;6306277;22;20035;-82
2023/12/25 00:47:50;;;;;;;5.47;4.45;;;;;;;10.66;100.00;100254.41;6306255;22;19999;-83
2023/12/25 00:50:16;;;;;;;5.72;5.20;;;;;;;10.60;100.00;100258.81;6304834;22;20007;-83
2023/12/25 00:52:41;;;;;;;8.45;5.70;;;;;;;10.68;100.00;100285.22;6304826;22;19999;-83
2023/12/25 00:55:07;;;;;;;6.72;5.38;;;;;;;10.59;100.00;100273.22;6304553;22;20011;-82
2023/12/25 00:57:32;;;;;;;8.80;5.55;;;;;;;10.59;100.00;100273.22;6304627;22;20060;-83
2023/12/25 00:59:57;;;;;;;8.52;6.28;;;;;;;10.68;100.00;100279.88;6304712;22;20488;-83
2023/12/25 01:02:23;;;;;;;6.70;6.00;;;;;;;10.76;100.00;100271.53;6306482;22;20034;-82
2023/12/25 01:04:48;;;;;;;8.52;6.70;;;;;;;10.82;100.00;100294.69;6304284;22;20333;-83
2023/12/25 01:07:13;;;;;;;7.50;6.75;;;;;;;10.79;100.00;100295.13;6306047;22;20011;-84
2023/12/25 01:09:40;;;;;;;9.40;6.93;;;;;;;10.74;100.00;100294.19;6306203;22;20007;-83
2023/12/25 01:12:06;;;;;;;8.70;6.80;;;;;;;10.80;100.00;100294.09;6304776;22;20011;-82
2023/12/25 01:14:31;;;;;;;6.63;6.00;;;;;;;10.77;100.00;100286.53;6304574;22;20011;-83
2023/12/25 01:16:57;;;;;;;9.55;7.35;;;;;;;10.81;100.00;100279.69;6304646;22;20007;-83
2023/12/25 01:19:22;;;;;;;6.72;6.03;;;;;;;10.81;100.00;100279.69;6306012;22;20400;-82
2023/12/25 01:21:47;;;;;;;7.13;6.43;;;;;;;10.88;100.00;100281.44;6304878;22;20035;-83
2023/12/25 01:24:13;;;;;;;7.90;6.38;;;;;;;10.90;100.00;100280.16;6304477;22;20432;-82
2023/12/25 01:26:38;;;;;;;7.13;5.85;;;;;;;10.92;100.00;100286.09;6306721;22;20086;-80
2023/12/25 01:29:03;;;;;;;7.95;6.13;;;;;;;10.93;100.00;100305.63;6304605;22;20038;-81
2023/12/25 01:31:29;;;;;;;8.32;7.28;;;;;;;10.92;100.00;100282.59;6304629;22;20010;-84
2023/12/25 01:33:54;;;;;;;8.23;6.22;;;;;;;10.94;100.00;100301.91;6306264;22;20137;-84
2023/12/25 01:36:19;;;;;;;7.70;7.00;;;;;;;11.04;100.00;100315.56;6306142;22;20011;-81
2023/12/25 01:38:45;;;;;;;8.15;6.72;;;;;;;11.07;100.00;100297.19;6304398;22;20070;-82
2023/12/25 01:41:10;;;;;;;8.10;7.30;;;;;;;11.03;100.00;100308.56;6304346;22;20014;-83
2023/12/25 01:43:35;;;;;;;8.73;7.63;;;;;;;11.07;100.00;100317.75;6304463;22;20018;-83
2023/12/25 01:46:01;;;;;;;10.05;7.55;;;;;;;11.05;100.00;100319.84;6304511;22;20085;-84
2023/12/25 01:48:26;;;;;;;8.50;7.18;;;;;;;11.05;100.00;100311.84;6306050;22;20493;-84
2023/12/25 01:50:56;;;;;;;9.95;6.95;;;;;;;10.96;100.00;100303.31;6306118;22;20424;-84
2023/12/25 01:53:21;;;;;;;10.00;7.78;;;;;;;10.99;100.00;100302.06;6304311;22;20007;-82
2023/12/25 01:55:47;;;;;;;10.15;7.13;;;;;;;10.96;100.00;100318.53;6304523;22;20011;-84
2023/12/25 01:58:13;;;;;;;10.77;8.52;;;;;;;10.97;100.00;100301.44;6304894;22;20015;-83
2023/12/25 02:00:38;;;;;;;9.52;7.63;;;;;;;11.02;100.00;100323.00;6306044;22;20007;-87
2023/12/25 02:03:04;;;;;;;9.18;7.45;;;;;;;10.99;100.00;100324.28;6304485;22;20054;-84
2023/12/25 02:05:29;;;;;;;10.60;8.80;;;;;;;11.05;100.00;100309.16;6305970;22;20034;-87
2023/12/25 02:07:55;;;;;;;11.82;8.98;;;;;;;11.03;100.00;100320.09;6306019;22;20428;-85
2023/12/25 02:10:29;;;;;;;9.82;8.27;;;;;;;11.06;100.00;100329.50;6306076;22;20086;-83
2023/12/25 02:12:55;;;;;;;9.85;8.13;;;;;;;11.08;100.00;100325.56;6305980;22;20386;-83
2023/12/25 02:15:21;;;;;;;10.90;9.05;;;;;;;11.03;100.00;100319.28;6306026;22;20045;-83
2023/12/25 02:17:47;;;;;;;10.35;7.82;;;;;;;11.11;100.00;100329.63;6306232;22;20035;-86
2023/12/25 02:20:13;;;;;;;10.85;8.18;;;;;;;11.05;100.00;100325.22;6304260;22;20068;-85
2023/12/25 02:22:40;;;;;;;12.43;8.70;;;;;;;11.08;100.00;100341.63;6305918;22;20432;-84
2023/12/25 02:25:13;;;;;;;11.77;9.13;;;;;;;11.11;100.00;100340.34;6305910;22;20011;-85
2023/12/25 02:27:38;;;;;;;9.40;8.45;;;;;;;11.20;100.00;100325.56;6304484;22;20428;-84
2023/12/25 02:30:05;;;;;;;9.98;8.70;;;;;;;11.17;100.00;100336.72;6304648;22;20102;-82
2023/12/25 02:32:30;;;;;;;11.27;8.82;;;;;;;11.30;100.00;100336.53;6305805;22;20436;-88
2023/12/25 02:34:55;;;;;;;11.50;8.27;;;;;;;11.24;100.00;100345.47;6306769;22;20010;-84
2023/12/25 02:37:21;;;;;;;9.15;7.20;;;;;;;11.30;100.00;100341.88;6304400;22;20038;-84
2023/12/25 02:39:46;;;;;;;11.43;7.05;;;;;;;11.32;100.00;100334.44;6304107;22;19999;-82
2023/12/25 02:42:12;;;;;;;7.70;6.93;;;;;;;11.29;100.00;100350.97;6304226;22;20033;-85
2023/12/25 02:44:37;;;;;;;8.60;7.40;;;;;;;11.33;100.00;100341.44;6304203;22;20003;-85
2023/12/25 02:47:02;;;;;;;8.52;7.72;;;;;;;11.28;100.00;100368.06;6306064;22;20014;-85
2023/12/25 02:49:28;;;;;;;7.68;6.47;;;;;;;11.22;100.00;100358.25;6304210;22;20090;-84
2023/12/25 02:51:53;;;;;;;7.95;6.88;;;;;;;11.27;100.00;100360.25;6305840;22;20086;-85
2023/12/25 02:54:18;;;;;;;8.27;6.90;;;;;;;11.28;100.00;100360.03;6305835;22;20010;-84
2023/12/25 02:56:44;;;;;;;8.90;7.63;;;;;;;11.23;100.00;100375.13;6304107;22;20038;-85
2023/12/25 02:59:09;;;;;;;11.88;6.85;;;;;;;11.31;100.00;100367.63;6304163;22;20018;-83
2023/12/25 03:01:34;;;;;;;6.95;6.20;;;;;;;11.32;100.00;100361.22;6305826;22;20323;-82
2023/12/25 03:04:00;;;;;;;7.65;6.75;;;;;;;11.34;100.00;100379.72;6303936;22;20010;-86
2023/12/25 03:06:25;;;;;;;8.15;6.68;;;;;;;11.36;100.00;100381.13;6304270;22;20010;-84
2023/12/25 03:08:50;;;;;;;8.60;6.22;;;;;;;11.33;100.00;100338.75;6304080;22;20014;-82
2023/12/25 03:11:16;;;;;;;7.85;6.30;;;;;;;11.35;100.00;100366.09;6305713;22;20056;-83
2023/12/25 03:13:41;;;;;;;12.73;8.77;;;;;;;11.33;100.00;100352.13;6304106;22;20086;-86
2023/12/25 03:16:07;;;;;;;7.97;7.18;;;;;;;11.25;100.00;100347.09;6305750;22;20007;-87
2023/12/25 03:18:33;;;;;;;8.65;6.90;;;;;;;11.41;100.00;100353.66;6305501;22;20014;-85
2023/12/25 03:20:59;;;;;;;8.15;6.88;;;;;;;11.32;100.00;100353.19;6305519;22;20007;-84
2023/12/25 03:23:24;;;;;;;8.45;7.13;;;;;;;11.33;100.00;100345.97;6306013;22;20052;-83
2023/12/25 03:25:50;;;;;;;9.82;7.60;;;;;;;11.36;100.00;100353.53;6304228;22;20011;-84
2023/12/25 03:28:15;;;;;;;9.85;7.32;;;;;;;11.38;100.00;100372.84;6304851;22;20011;-86
2023/12/25 03:30:40;;;;;;;8.70;7.90;;;;;;;11.27;100.00;100355.72;6303946;22;20052;-86
2023/12/25 03:33:07;;;;;;;8.70;7.70;;;;;;;11.37;100.00;100368.53;6305682;22;20057;-85
2023/12/25 03:35:35;;;;;;;9.52;8.55;;;;;;;11.35;100.00;100374.13;6305701;22;20425;-86
2023/12/25 03:38:01;;;;;;;9.55;8.65;;;;;;;11.26;100.00;100364.78;6303944;22;20007;-87
2023/12/25 03:40:26;;;;;;;9.30;8.15;;;;;;;11.37;100.00;100361.31;6303901;22;19999;-86
2023/12/25 03:42:55;;;;;;;9.75;8.68;;;;;;;11.26;100.00;100378.16;6304227;22;20082;-86
2023/12/25 03:45:20;;;;;;;9.13;8.13;;;;;;;11.24;100.00;100366.88;6305725;22;20007;-85
2023/12/25 03:47:45;;;;;;;10.55;9.10;;;;;;;11.34;100.00;100391.25;6305349;22;20030;-86
2023/12/25 03:50:11;;;;;;;9.63;8.63;;;;;;;11.33;100.00;100388.78;6303730;22;20317;-87
2023/12/25 03:52:36;;;;;;;9.52;8.45;;;;;;;11.28;100.00;100381.47;6303905;22;20031;-89
2023/12/25 03:55:02;;;;;;;10.13;8.98;;;;;;;11.24;100.00;100382.13;6305434;22;20010;-84
2023/12/25 03:57:28;;;;;;;9.00;8.05;;;;;;;11.32;100.00;100385.31;6305356;22;20007;-86
2023/12/25 03:59:53;;;;;;;10.52;8.77;;;;;;;11.25;100.00;100392.59;6305245;22;20459;-85
2023/12/25 04:02:18;;;;;;;9.70;8.75;;;;;;;11.23;100.00;100383.97;6305402;22;20008;-84
2023/12/25 04:04:44;;;;;;;10.68;8.93;;;;;;;11.28;100.00;100384.13;6303955;22;20003;-85
2023/12/25 04:07:09;;;;;;;9.82;8.82;;;;;;;11.22;100.00;100384.22;6303689;22;20014;-85
2023/12/25 04:09:34;;;;;;;10.68;7.82;;;;;;;11.24;100.00;100387.47;6305132;22;20018;-86
2023/12/25 04:12:00;;;;;;;10.15;8.30;;;;;;;11.16;100.00;100400.16;6305084;22;20452;-88
2023/12/25 04:14:25;;;;;;;9.85;9.00;;;;;;;11.18;100.00;100383.84;6303496;22;20058;-86
2023/12/25 04:16:50;;;;;;;10.15;9.18;;;;;;;11.25;100.00;100386.44;6303787;22;20110;-87
2023/12/25 04:19:16;;;;;;;9.85;8.20;;;;;;;11.15;100.00;100384.31;6305265;22;20492;-84
2023/12/25 04:21:41;;;;;;;10.27;7.47;;;;;;;11.10;100.00;100376.97;6305245;22;20142;-85
2023/12/25 04:24:07;;;;;;;10.15;8.65;;;;;;;11.00;100.00;100349.16;6305042;22;20079;-83
2023/12/25 04:26:33;;;;;;;8.57;7.68;;;;;;;11.06;100.00;100375.00;6305172;22;20003;-87
2023/12/25 04:28:58;;;;;;;9.00;7.50;;;;;;;11.16;100.00;100357.31;6303661;22;20041;-84
2023/12/25 04:31:24;;;;;;;9.35;7.75;;;;;;;11.06;100.00;100348.25;6303289;22;20011;-85
2023/12/25 04:33:49;;;;;;;7.53;6.82;;;;;;;11.12;100.00;100353.47;6304964;22;20078;-83
2023/12/25 04:36:14;;;;;;;6.78;5.97;;;;;;;11.09;100.00;100345.91;6304984;22;20007;-83
2023/12/25 04:38:40;;;;;;;5.72;5.18;;;;;;;11.09;100.00;100345.09;6304761;22;20007;-83
2023/12/25 04:41:05;;;;;;;6.55;5.95;;;;;;;11.05;100.00;100357.31;6306072;22;20425;-83
2023/12/25 04:43:31;;;;;;;6.38;5.55;;;;;;;11.04;100.00;100367.19;6304734;22;19999;-82
2023/12/25 04:45:56;;;;;;;7.53;5.93;;;;;;;10.99;100.00;100366.25;6306397;22;20378;-84
2023/12/25 04:48:22;;;;;;;5.43;4.93;;;;;;;11.06;100.00;100359.75;6306163;22;20428;-83
2023/12/25 04:50:47;;;;;;;5.40;4.90;;;;;;;11.09;100.00;100361.97;6306458;22;20094;-87
2023/12/25 04:53:13;;;;;;;6.32;5.57;;;;;;;10.95;100.00;100344.47;6304964;22;20003;-86
2023/12/25 04:55:39;;;;;;;5.35;4.82;;;;;;;11.05;100.00;100357.31;6304697;22;20007;-84
2023/12/25 04:58:05;;;;;;;4.38;3.97;;;;;;;11.08;100.00;100341.63;6304653;22;20078;-83
2023/12/25 05:00:31;;;;;;;5.25;4.80;;;;;;;11.05;100.00;100347.44;6306246;22;20555;-84
2023/12/25 05:02:57;;;;;;;5.15;4.65;;;;;;;11.01;100.00;100340.09;6306148;22;20109;-83
2023/12/25 05:05:22;;;;;;;4.95;4.43;;;;;;;10.99;100.00;100334.97;6306483;22;19999;-85
2023/12/25 05:07:48;;;;;;;4.38;3.97;;;;;;;11.03;100.00;100332.66;6304880;22;20008;-84
2023/12/25 05:10:13;;;;;;;4.07;3.67;;;;;;;10.97;100.00;100328.19;6304614;22;20037;-86
2023/12/25 05:12:39;;;;;;;3.65;3.35;;;;;;;10.98;100.00;100337.84;6306195;22;20010;-86
2023/12/25 05:15:04;;;;;;;3.65;3.22;;;;;;;10.98;100.00;100324.47;6306402;22;20067;-83
2023/12/25 05:17:30;;;;;;;2.95;2.70;;;;;;;11.01;100.00;100351.59;6304717;22;20374;-84
2023/12/25 05:19:55;;;;;;;3.22;2.70;;;;;;;10.91;100.00;100334.47;6304595;22;20007;-83
2023/12/25 05:22:21;;;;;;;3.03;2.75;;;;;;;10.94;100.00;100342.03;6306243;22;20332;-84
2023/12/25 05:24:46;;;;;;;3.95;3.30;;;;;;;10.95;100.00;100327.59;6306163;22;19999;-84
2023/12/25 05:27:11;;;;;;;3.63;3.17;;;;;;;10.92;100.00;100347.59;6304850;22;20090;-80
2023/12/25 05:29:37;;;;;;;3.42;2.53;;;;;;;10.95;100.00;100322.25;6306402;22;20030;-83
2023/12/25 05:32:03;;;;;;;3.03;2.50;;;;;;;10.88;100.00;100326.91;6306316;22;20011;-87
2023/12/25 05:34:28;;;;;;;3.28;2.97;;;;;;;10.82;100.00;100329.44;6304618;22;20006;-86
2023/12/25 05:36:54;;;;;;;2.85;2.55;;;;;;;10.72;100.00;100333.72;6305987;22;20022;-83
2023/12/25 05:39:19;;;;;;;2.92;2.63;;;;;;;10.76;100.00;100340.25;6306085;22;20007;-82
2023/12/25 05:41:45;;;;;;;2.60;2.40;;;;;;;10.62;100.00;100342.28;6306151;22;20008;-83
2023/12/25 05:44:10;;;;;;;2.85;2.50;;;;;;;10.63;100.00;100335.88;6305980;22;19999;-83
2023/12/25 05:46:36;;;;;;;2.70;2.50;;;;;;;10.66;100.00;100332.75;6304394;22;20078;-83
2023/12/25 05:49:02;;;;;;;2.60;2.40;;;;;;;10.76;100.00;100349.09;6304480;22;20003;-81
2023/12/25 05:51:28;;;;;;;3.00;2.50;;;;;;;10.78;100.00;100327.47;6305726;22;19999;-83
2023/12/25 05:53:53;;;;;;;3.30;3.00;;;;;;;10.79;100.00;100324.56;6304770;22;20061;-85
2023/12/25 05:56:19;;;;;;;4.30;2.85;;;;;;;10.80;100.00;100336.06;6304496;22;20082;-84
2023/12/25 05:58:44;;;;;;;3.00;2.70;;;;;;;10.74;100.00;100332.44;6304375;22;20088;-83
2023/12/25 06:01:12;;;;;;;3.20;2.90;;;;;;;10.66;100.00;100331.94;6305937;22;20004;-83
2023/12/25 06:03:38;;;;;;;2.95;2.65;;;;;;;10.57;100.00;100338.66;6304323;22;20340;-82
2023/12/25 06:06:04;;;;;;;3.42;2.97;;;;;;;10.61;100.00;100339.81;6304537;22;20003;-83
2023/12/25 06:08:29;;;;;;;3.60;3.00;;;;;;;10.62;100.00;100328.91;6304425;22;20306;-85
2023/12/25 06:10:55;;;;;;;3.20;2.75;;;;;;;10.66;100.00;100332.75;6304495;22;20390;-83
2023/12/25 06:13:20;;;;;;;3.05;2.75;;;;;;;10.65;100.00;100346.34;6304349;22;20007;-83
2023/12/25 06:15:45;;;;;;;4.15;3.13;;;;;;;10.63;100.00;100329.72;6305935;22;20034;-83
2023/12/25 06:18:11;;;;;;;3.25;2.95;;;;;;;10.67;100.00;100323.69;6304347;22;20011;-81
2023/12/25 06:20:36;;;;;;;3.15;2.80;;;;;;;10.80;100.00;100339.56;6305971;22;20321;-82
2023/12/25 06:23:01;;;;;;;3.17;2.88;;;;;;;10.72;100.00;100334.53;6304410;22;20389;-82
2023/12/25 06:25:27;;;;;;;3.67;3.38;;;;;;;10.74;100.00;100324.44;6304457;22;20073;-82
2023/12/25 06:27:52;;;;;;;3.40;3.10;;;;;;;10.80;100.00;100331.53;6304330;22;20007;-82
2023/12/25 06:30:17;;;;;;;3.58;3.28;;;;;;;10.81;100.00;100324.31;6306167;22;20325;-83
2023/12/25 06:32:43;;;;;;;3.65;3.08;;;;;;;10.84;100.00;100327.34;6306008;22;20499;-82
2023/12/25 06:35:08;;;;;;;3.67;3.38;;;;;;;10.82;100.00;100332.13;6305985;22;20359;-83
2023/12/25 06:37:34;;;;;;;3.40;3.10;;;;;;;10.81;100.00;100338.50;6306052;22;20030;-83
2023/12/25 06:39:59;;;;;;;3.30;3.00;;;;;;;10.87;100.00;100347.47;6304191;22;20005;-82
2023/12/25 06:42:25;;;;;;;3.75;3.45;;;;;;;10.72;100.00;100334.53;6305979;22;20011;-81
2023/12/25 06:44:50;;;;;;;4.25;3.30;;;;;;;10.72;100.00;100347.91;6304141;22;20053;-85
2023/12/25 06:47:15;;;;;;;3.63;3.33;;;;;;;10.76;100.00;100329.56;6304099;22;20057;-83
2023/12/25 06:49:41;;;;;;;4.68;3.70;;;;;;;10.73;100.00;100333.50;6304112;22;20034;-85
2023/12/25 06:52:07;;;;;;;4.63;4.22;;;;;;;10.68;100.00;100351.25;6304149;22;20095;-83
2023/12/25 06:54:33;;;;;;;3.63;3.25;;;;;;;10.72;100.00;100329.19;6305807;22;20018;-84
2023/12/25 06:56:59;;;;;;;5.03;4.35;;;;;;;10.73;100.00;100351.41;6304467;22;20037;-83
2023/12/25 06:59:24;;;;;;;4.80;4.32;;;;;;;10.64;100.00;100344.72;6304224;22;20427;-83
2023/12/25 07:01:49;;;;;;;5.68;4.85;;;;;;;10.68;100.00;100352.06;6306206;22;19999;-83
2023/12/25 07:04:15;;;;;;;6.97;6.18;;;;;;;10.66;100.00;100356.81;6303486;22;20313;-83
2023/12/25 07:06:40;;;;;;;6.75;6.05;;;;;;;10.61;100.00;100340.63;6306111;22;20029;-83
2023/12/25 07:09:05;;;;;;;6.93;6.22;;;;;;;10.54;100.00;100345.28;6305752;22;20007;-83
2023/12/25 07:11:31;;;;;;;7.43;6.18;;;;;;;10.57;100.00;100355.50;6305969;22;20010;-84
2023/12/25 07:13:57;;;;;;;7.07;6.07;;;;;;;10.57;100.00;100360.84;6304303;22;20015;-84
2023/12/25 07:16:23;;;;;;;7.50;6.57;;;;;;;10.54;100.00;100374.69;6305984;22;20025;-84
2023/12/25 07:18:50;;;;;;;9.25;8.02;;;;;;;10.52;100.00;100380.25;6304389;22;20336;-83
2023/12/25 07:21:15;;;;;;;8.70;7.15;;;;;;;10.45;100.00;100378.72;6304187;22;20090;-83
2023/12/25 07:23:41;;;;;;;4.20;3.33;;;;;;;10.41;100.00;100380.19;6304496;22;20376;-84
2023/12/25 07:26:07;;;;;;;1.70;1.60;;;;;;;10.26;100.00;100387.75;6305751;22;20008;-84
2023/12/25 07:28:33;;;;;;;2.25;1.30;;;;;;;10.13;100.00;100396.72;6304223;22;20098;-85
2023/12/25 07:30:59;;;;;;;1.35;1.00;;;;;;;9.94;100.00;100383.34;6304009;22;20092;-85
2023/12/25 07:33:24;;;;;;;1.02;1.02;;;;;;;9.83;100.00;100389.41;6305813;22;20018;-83
2023/12/25 07:35:49;;;;;;;1.10;1.10;;;;;;;9.77;100.00;100392.94;6305748;22;19999;-84
2023/12/25 07:38:15;;;;;;;1.00;1.00;;;;;;;9.71;100.00;100388.50;6304093;22;20433;-84
2023/12/25 07:40:40;;;;;;;1.10;1.00;;;;;;;9.66;100.00;100388.34;6303991;22;20018;-84
2023/12/25 07:43:10;;;;;;;1.20;1.10;;;;;;;9.72;100.00;100391.97;6305624;22;20397;-85
2023/12/25 07:45:36;;;;;;;0.93;0.93;;;;;;;9.69;100.00;100397.75;6303794;22;20053;-84
2023/12/25 07:48:01;;;;;;;1.00;1.00;;;;;;;9.65;100.00;100400.06;6304062;22;20314;-84
2023/12/25 07:50:27;;;;;;;1.85;1.10;;;;;;;9.58;100.00;100392.09;6305647;22;20007;-85
2023/12/25 07:52:52;;;;;;;1.17;1.17;;;;;;;9.61;100.00;100418.34;6305322;22;20003;-86
2023/12/25 07:55:18;;;;;;;1.00;1.00;;;;;;;9.50;100.00;100408.38;6305367;22;20036;-86
2023/12/25 07:57:43;;;;;;;1.23;1.13;;;;;;;9.49;100.00;100416.59;6305496;22;20003;-85
2023/12/25 08:00:10;;;;;;;1.13;1.13;;;;;;;9.46;100.00;100417.03;6305268;22;20421;-85
2023/12/25 08:02:35;;;;;;;1.35;1.25;;;;;;;9.43;100.00;100415.63;6303593;22;20003;-84
2023/12/25 08:05:00;;;;;;;1.75;1.33;;;;;;;9.46;100.00;100430.38;6303749;22;20086;-83
2023/12/25 08:07:26;;;;;;;1.23;1.23;;;;;;;9.39;100.00;100427.75;6305146;22;19999;-83
2023/12/25 08:09:51;;;;;;;1.10;1.10;;;;;;;9.38;100.00;100430.66;6305227;22;20082;-82
2023/12/25 08:12:16;;;;;;;1.15;1.10;;;;;;;9.40;100.00;100445.41;6305281;22;20434;-81
2023/12/25 08:14:42;;;;;;;1.10;1.00;;;;;;;9.37;100.00;100445.03;6305317;22;20080;-81
2023/12/25 08:17:07;;;;;;;0.90;0.85;;;;;;;9.38;100.00;100427.97;6306355;22;20003;-81
2023/12/25 08:19:32;;;;;;;1.00;1.00;;;;;;;9.33;100.00;100431.31;6304685;22;20352;-81
2023/12/25 08:21:58;;;;;;;1.30;1.20;;;;;;;9.36;100.00;100433.53;6304784;22;20008;-82
2023/12/25 08:24:25;;;;;;;1.00;1.00;;;;;;;9.36;100.00;100438.88;6305159;22;20052;-80
2023/12/25 08:26:51;;;;;;;1.13;1.05;;;;;;;9.32;100.00;100443.00;6304790;22;20090;-81
2023/12/25 08:29:16;;;;;;;1.48;1.00;;;;;;;9.26;100.00;100439.34;6306488;22;20480;-80
2023/12/25 08:31:41;;;;;;;1.13;1.10;;;;;;;9.29;100.00;100438.09;6306275;22;20137;-81
2023/12/25 08:34:07;;;;;;;2.05;1.30;;;;;;;9.25;100.00;100435.06;6306400;22;20070;-82
2023/12/25 08:36:32;;;;;;;1.00;1.00;;;;;;;9.23;100.00;100439.75;6306342;22;20337;-82
2023/12/25 08:38:58;;;;;;;1.02;1.02;;;;;;;9.21;100.00;100441.81;6304594;22;20053;-82
2023/12/25 08:41:23;;;;;;;1.13;1.10;;;;;;;9.29;100.00;100448.78;6306119;22;20014;-82
2023/12/25 08:43:49;;;;;;;1.48;1.30;;;;;;;9.24;100.00;100445.91;6306386;22;20004;-82
2023/12/25 08:46:14;;;;;;;1.48;1.38;;;;;;;9.23;100.00;100449.63;6306368;22;20018;-83
2023/12/25 08:48:40;;;;;;;1.65;1.50;;;;;;;9.27;100.00;100458.84;6306377;22;20000;-83
2023/12/25 08:51:05;;;;;;;1.42;1.33;;;;;;;9.22;100.00;100464.81;6304789;22;20015;-84
2023/12/25 08:53:31;;;;;;;1.65;1.52;;;;;;;9.24;100.00;100462.72;6306381;22;20007;-82
2023/12/25 08:55:58;;;;;;;2.90;1.63;;;;;;;9.22;100.00;100461.31;6304752;22;20007;-83
2023/12/25 08:58:24;;;;;;;2.30;1.50;;;;;;;9.23;100.00;100455.75;6304755;22;20003;-83
2023/12/25 09:00:50;;;;;;;1.85;1.60;;;;;;;9.22;100.00;100443.47;6306355;22;20030;-84
2023/12/25 09:03:15;;;;;;;2.40;1.77;;;;;;;9.24;100.00;100446.72;6305011;22;20513;-83
2023/12/25 09:05:41;;;;;;;2.22;1.60;;;;;;;9.24;100.00;100436.06;6306313;22;20026;-83
2023/12/25 09:08:06;;;;;;;1.70;1.60;;;;;;;9.23;100.00;100433.59;6306301;22;20007;-83
2023/12/25 09:10:33;;;;;;;1.70;1.60;;;;;;;9.30;100.00;100445.88;6305077;22;20482;-85
2023/12/25 09:12:58;;;;;;;1.60;1.35;;;;;;;9.34;100.00;100446.28;6304997;22;20007;-86
2023/12/25 09:15:23;;;;;;;1.85;1.70;;;;;;;9.32;100.00;100454.50;6305163;22;20208;-84
2023/12/25 09:17:50;;;;;;;1.60;1.50;;;;;;;9.39;100.00;100464.31;6304809;22;20003;-84
2023/12/25 09:20:16;;;;;;;1.70;1.60;;;;;;;9.34;100.00;100451.63;6306171;22;20026;-84
2023/12/25 09:22:42;;;;;;;3.28;1.48;;;;;;;9.44;100.00;100480.47;6304913;22;20007;-84
2023/12/25 09:25:07;;;;;;;1.35;1.20;;;;;;;9.47;100.00;100478.19;6304945;22;20018;-84
2023/12/25 09:27:33;;;;;;;2.45;1.77;;;;;;;9.41;100.00;100492.41;6305892;22;20010;-84
2023/12/25 09:29:58;;;;;;;2.58;2.30;;;;;;;9.42;100.00;100495.88;6304827;22;20007;-83
2023/12/25 09:32:24;;;;;;;2.97;2.33;;;;;;;9.40;100.00;100520.13;6304953;22;20507;-84
2023/12/25 09:34:49;;;;;;;2.78;2.00;;;;;;;9.34;100.00;100510.31;6304854;22;20467;-84
2023/12/25 09:37:15;;;;;;;3.00;2.13;;;;;;;9.38;100.00;100524.84;6304694;22;20328;-83
2023/12/25 09:39:43;;;;;;;2.78;1.92;;;;;;;9.37;100.00;100536.56;6306354;22;20058;-83
2023/12/25 09:42:10;;;;;;;2.17;1.92;;;;;;;9.35;100.00;100519.94;6306278;22;20035;-84
2023/12/25 09:44:37;;;;;;;4.00;2.53;;;;;;;9.34;100.00;100520.97;6306359;22;20371;-84
2023/12/25 09:47:06;;;;;;;3.00;2.25;;;;;;;9.33;100.00;100514.00;6304435;22;20013;-83
2023/12/25 09:49:35;;;;;;;2.13;1.80;;;;;;;9.33;100.00;100498.00;6305885;22;20007;-85
2023/12/25 09:52:02;;;;;;;1.60;1.45;;;;;;;9.40;100.00;100493.44;6306360;22;20003;-85
2023/12/25 09:54:27;;;;;;;2.83;1.90;;;;;;;9.29;100.00;100478.94;6306571;22;20428;-85
2023/12/25 09:56:55;;;;;;;1.25;1.20;;;;;;;9.41;100.00;100500.41;6306669;22;20015;-86
2023/12/25 09:59:21;;;;;;;1.63;1.50;;;;;;;9.33;100.00;100500.66;6304926;22;20003;-85
2023/12/25 10:01:48;;;;;;;3.47;1.45;;;;;;;9.39;100.00;100502.47;6304913;22;20018;-85
2023/12/25 10:04:14;;;;;;;1.67;1.58;;;;;;;9.33;100.00;100506.00;6304660;22;20408;-84
2023/12/25 10:06:43;;;;;;;1.20;1.20;;;;;;;9.38;100.00;100506.19;6307175;22;20007;-84
2023/12/25 10:09:12;;;;;;;2.17;1.42;;;;;;;9.28;100.00;100501.31;6306036;22;20313;-82
2023/12/25 10:11:37;;;;;;;2.08;1.50;;;;;;;9.29;100.00;100502.13;6306952;22;20007;-81
2023/12/25 10:14:02;;;;;;;3.08;1.70;;;;;;;9.36;100.00;100510.91;6304773;22;20052;-81
2023/12/25 10:16:29;;;;;;;2.42;1.30;;;;;;;9.09;100.00;100490.75;6307246;22;20030;-80
2023/12/25 10:18:56;;;;;;;1.98;1.40;;;;;;;9.10;100.00;100495.03;6306271;22;20424;-80
2023/12/25 10:21:27;;;;;;;2.22;1.42;;;;;;;9.11;100.00;100491.34;6304466;22;20092;-83
2023/12/25 10:24:12;;;;;;;1.95;1.40;;;;;;;8.85;100.00;100457.63;6304160;22;20003;-83
2023/12/25 10:27:09;;;;;;;1.70;1.50;;;;;;;8.85;100.00;100455.78;6304862;22;20034;-82
2023/12/25 10:29:37;;;;;;;2.03;1.50;;;;;;;8.95;100.00;100472.13;6304294;22;20011;-81
2023/12/25 10:32:18;;;;;;;1.95;1.50;;;;;;;9.08;100.00;100489.09;6306130;22;20013;-81
2023/12/25 10:34:44;;;;;;;2.03;1.70;;;;;;;9.16;100.00;100504.84;6304991;22;20512;-81
2023/12/25 10:37:11;;;;;;;3.17;1.50;;;;;;;9.21;100.00;100515.69;6305807;22;20022;-80
2023/12/25 10:39:37;;;;;;;1.35;1.23;;;;;;;9.14;100.00;100521.06;6305783;22;20037;-81
2023/12/25 10:42:02;;;;;;;2.45;1.30;;;;;;;9.18;100.00;100521.47;6306093;22;20007;-82
2023/12/25 10:44:29;;;;;;;3.13;1.60;;;;;;;9.15;100.00;100511.22;6304686;22;20094;-82
2023/12/25 10:46:58;;;;;;;2.60;1.42;;;;;;;9.13;100.00;100511.44;6304210;22;20057;-81
2023/12/25 10:49:23;;;;;;;2.33;1.35;;;;;;;9.19;100.00;100528.44;6304423;22;20011;-80
2023/12/25 10:51:49;;;;;;;13.38;12.13;;;;;;;9.16;100.00;100534.19;6305709;22;20349;-83
2023/12/25 10:54:16;;;;;;;16.77;15.48;;;;;;;9.18;100.00;100535.63;6305775;22;20064;-84
2023/12/25 10:56:45;;;;;;;12.68;11.43;;;;;;;9.08;100.00;100510.44;6304328;22;20003;-83
2023/12/25 10:59:30;;;;;;;10.15;9.10;;;;;;;9.21;100.00;100521.84;6305642;22;20361;-83
2023/12/25 11:02:00;;;;;;;9.45;8.55;;;;;;;9.11;100.00;100520.69;6305839;22;20017;-81
2023/12/25 11:04:26;;;;;;;11.38;10.27;;;;;;;9.12;100.00;100517.81;6305673;22;20078;-81
2023/12/25 11:06:54;;;;;;;29.85;26.80;;;;;;;9.08;100.00;100511.25;6305944;22;19999;-81
2023/12/25 11:09:22;;;;;;;7.15;6.40;;;;;;;9.11;100.00;100528.69;6305768;22;20003;-81
2023/12/25 11:11:51;;;;;;;7.03;4.72;;;;;;;8.99;100.00;100513.34;6304101;22;19999;-80
2023/12/25 11:14:17;;;;;;;9.00;7.13;;;;;;;9.02;100.00;100529.97;6304011;22;20003;-81